Seaton Dump, Arkansas
Current Conditions -  °F | °C
As of 7:35 AM on Saturday 25 Oct 2014 (Local Time) from KSGT Reporting Station
Clear Clear  
Wind Chill: 55°   Ceiling: Unl
Heat Index: 55°   Visibility: 10mi
Dew Point: 52°   Wind: 5mph
Humidity: 88%   Direction: 200°SSW
Pressure: 30.12"   Gusts: NA
Location:  34.5894°N, 91.9107°W
Report Text: KSGT 251235Z AUTO 20004KT 10SM CLR 13/11 A3012 RMK AO1
Loading
Personal Weather Stations






























Interactive Weather Map
Tropical Storm Tracking
New forecast layout! Learn more

10-Day Weather Forecast

Advertisements
Track Severe Weather on mobile